sensor_id;sensor_type;location;lat;lon;timestamp;temperature;humidity
19342;DHT22;9807;48.258;12.690;2022-07-29T00:02:12;23.60;99.90
19342;DHT22;9807;48.258;12.690;2022-07-29T00:04:38;23.80;99.90
19342;DHT22;9807;48.258;12.690;2022-07-29T00:07:04;23.90;99.90
19342;DHT22;9807;48.258;12.690;2022-07-29T00:09:30;23.90;99.90
19342;DHT22;9807;48.258;12.690;2022-07-29T00:11:59;23.90;99.90
19342;DHT22;9807;48.258;12.690;2022-07-29T00:14:25;24.00;99.90
19342;DHT22;9807;48.258;12.690;2022-07-29T00:16:51;24.10;99.90
19342;DHT22;9807;48.258;12.690;2022-07-29T00:19:16;24.10;99.90
19342;DHT22;9807;48.258;12.690;2022-07-29T00:21:42;23.80;99.90
19342;DHT22;9807;48.258;12.690;2022-07-29T00:24:08;23.40;99.90
19342;DHT22;9807;48.258;12.690;2022-07-29T00:26:34;23.20;99.90
19342;DHT22;9807;48.258;12.690;2022-07-29T00:29:00;23.20;99.90
19342;DHT22;9807;48.258;12.690;2022-07-29T00:31:29;23.30;99.90
19342;DHT22;9807;48.258;12.690;2022-07-29T00:33:56;23.40;99.90
19342;DHT22;9807;48.258;12.690;2022-07-29T00:36:22;23.40;99.90
19342;DHT22;9807;48.258;12.690;2022-07-29T00:38:49;23.20;99.90
19342;DHT22;9807;48.258;12.690;2022-07-29T00:41:15;23.20;99.90
19342;DHT22;9807;48.258;12.690;2022-07-29T00:43:41;23.30;99.90
19342;DHT22;9807;48.258;12.690;2022-07-29T00:46:11;23.40;99.90
19342;DHT22;9807;48.258;12.690;2022-07-29T00:48:37;23.50;99.90
19342;DHT22;9807;48.258;12.690;2022-07-29T00:51:11;23.60;99.90
19342;DHT22;9807;48.258;12.690;2022-07-29T00:53:38;23.70;99.90
19342;DHT22;9807;48.258;12.690;2022-07-29T00:56:09;23.70;99.90
19342;DHT22;9807;48.258;12.690;2022-07-29T00:58:35;23.80;99.90
19342;DHT22;9807;48.258;12.690;2022-07-29T01:01:09;23.80;99.90
19342;DHT22;9807;48.258;12.690;2022-07-29T01:03:34;23.80;99.90
19342;DHT22;9807;48.258;12.690;2022-07-29T01:06:00;23.90;99.90
19342;DHT22;9807;48.258;12.690;2022-07-29T01:08:26;23.80;99.90
19342;DHT22;9807;48.258;12.690;2022-07-29T01:10:53;23.90;99.90
19342;DHT22;9807;48.258;12.690;2022-07-29T01:13:19;23.90;99.90
19342;DHT22;9807;48.258;12.690;2022-07-29T01:15:49;23.80;99.90
19342;DHT22;9807;48.258;12.690;2022-07-29T01:21:00;23.30;99.90
19342;DHT22;9807;48.258;12.690;2022-07-29T01:26:57;23.30;99.90
19342;DHT22;9807;48.258;12.690;2022-07-29T01:29:40;23.40;99.90
19342;DHT22;9807;48.258;12.690;2022-07-29T01:32:20;23.50;99.90
19342;DHT22;9807;48.258;12.690;2022-07-29T01:34:52;23.50;99.90
19342;DHT22;9807;48.258;12.690;2022-07-29T01:37:22;23.40;99.90
19342;DHT22;9807;48.258;12.690;2022-07-29T01:39:52;23.20;99.90
19342;DHT22;9807;48.258;12.690;2022-07-29T01:42:23;22.90;99.90
19342;DHT22;9807;48.258;12.690;2022-07-29T01:47:37;22.40;99.90
19342;DHT22;9807;48.258;12.690;2022-07-29T01:50:07;22.20;99.90
19342;DHT22;9807;48.258;12.690;2022-07-29T01:52:39;22.30;99.90
19342;DHT22;9807;48.258;12.690;2022-07-29T01:55:11;22.30;99.90
19342;DHT22;9807;48.258;12.690;2022-07-29T01:57:39;22.10;99.90
19342;DHT22;9807;48.258;12.690;2022-07-29T02:00:08;21.90;99.90
19342;DHT22;9807;48.258;12.690;2022-07-29T02:02:35;21.60;99.90
19342;DHT22;9807;48.258;12.690;2022-07-29T02:05:03;21.50;99.90
19342;DHT22;9807;48.258;12.690;2022-07-29T02:07:32;21.70;99.90
19342;DHT22;9807;48.258;12.690;2022-07-29T02:10:01;21.60;99.90
19342;DHT22;9807;48.258;12.690;2022-07-29T02:12:29;21.60;99.90
19342;DHT22;9807;48.258;12.690;2022-07-29T02:14:56;21.60;99.90
19342;DHT22;9807;48.258;12.690;2022-07-29T02:17:33;21.40;99.90
19342;DHT22;9807;48.258;12.690;2022-07-29T02:20:02;21.40;99.90
19342;DHT22;9807;48.258;12.690;2022-07-29T02:22:30;21.20;99.90
19342;DHT22;9807;48.258;12.690;2022-07-29T02:24:58;20.90;99.90
19342;DHT22;9807;48.258;12.690;2022-07-29T02:27:26;20.80;99.90
19342;DHT22;9807;48.258;12.690;2022-07-29T02:29:53;20.70;99.90
19342;DHT22;9807;48.258;12.690;2022-07-29T02:32:21;20.50;99.90
19342;DHT22;9807;48.258;12.690;2022-07-29T02:34:49;20.50;99.90
19342;DHT22;9807;48.258;12.690;2022-07-29T02:37:16;20.50;99.90
19342;DHT22;9807;48.258;12.690;2022-07-29T02:39:44;20.50;99.90
19342;DHT22;9807;48.258;12.690;2022-07-29T02:42:13;20.60;99.90
19342;DHT22;9807;48.258;12.690;2022-07-29T02:44:40;20.60;99.90
19342;DHT22;9807;48.258;12.690;2022-07-29T02:52:43;20.70;99.90
19342;DHT22;9807;48.258;12.690;2022-07-29T02:55:30;20.60;99.90
19342;DHT22;9807;48.258;12.690;2022-07-29T03:00:56;20.60;99.90
19342;DHT22;9807;48.258;12.690;2022-07-29T03:03:25;20.90;99.90
19342;DHT22;9807;48.258;12.690;2022-07-29T03:05:55;21.10;99.90
19342;DHT22;9807;48.258;12.690;2022-07-29T03:08:22;21.30;99.90
19342;DHT22;9807;48.258;12.690;2022-07-29T03:10:48;21.40;99.90
19342;DHT22;9807;48.258;12.690;2022-07-29T03:13:16;21.30;99.90
19342;DHT22;9807;48.258;12.690;2022-07-29T03:15:45;21.50;99.90
19342;DHT22;9807;48.258;12.690;2022-07-29T03:18:12;21.70;99.90
19342;DHT22;9807;48.258;12.690;2022-07-29T03:20:38;21.90;99.90
19342;DHT22;9807;48.258;12.690;2022-07-29T03:23:04;22.00;99.90
19342;DHT22;9807;48.258;12.690;2022-07-29T03:25:30;22.20;99.90
19342;DHT22;9807;48.258;12.690;2022-07-29T03:27:56;22.30;99.90
19342;DHT22;9807;48.258;12.690;2022-07-29T03:30:23;22.40;99.90
19342;DHT22;9807;48.258;12.690;2022-07-29T03:32:50;22.50;99.90
19342;DHT22;9807;48.258;12.690;2022-07-29T03:35:16;22.50;99.90
19342;DHT22;9807;48.258;12.690;2022-07-29T03:37:48;22.60;99.90
19342;DHT22;9807;48.258;12.690;2022-07-29T03:40:22;22.70;99.90
19342;DHT22;9807;48.258;12.690;2022-07-29T03:42:49;22.70;99.90
19342;DHT22;9807;48.258;12.690;2022-07-29T03:45:18;22.60;99.90
19342;DHT22;9807;48.258;12.690;2022-07-29T03:47:51;22.50;99.90
19342;DHT22;9807;48.258;12.690;2022-07-29T03:50:19;22.40;99.90
19342;DHT22;9807;48.258;12.690;2022-07-29T03:52:47;22.50;99.90
19342;DHT22;9807;48.258;12.690;2022-07-29T03:55:14;22.60;99.90
19342;DHT22;9807;48.258;12.690;2022-07-29T03:57:40;22.60;99.90
19342;DHT22;9807;48.258;12.690;2022-07-29T04:00:08;22.70;99.90
19342;DHT22;9807;48.258;12.690;2022-07-29T04:02:34;22.80;99.90
19342;DHT22;9807;48.258;12.690;2022-07-29T04:05:04;22.80;99.90
19342;DHT22;9807;48.258;12.690;2022-07-29T04:07:30;22.90;99.90
19342;DHT22;9807;48.258;12.690;2022-07-29T04:09:56;22.90;99.90
19342;DHT22;9807;48.258;12.690;2022-07-29T04:12:21;22.90;99.90
19342;DHT22;9807;48.258;12.690;2022-07-29T04:14:47;22.90;99.90
19342;DHT22;9807;48.258;12.690;2022-07-29T04:17:14;23.00;99.90
19342;DHT22;9807;48.258;12.690;2022-07-29T04:19:39;23.00;99.90
19342;DHT22;9807;48.258;12.690;2022-07-29T04:22:05;23.00;99.90
19342;DHT22;9807;48.258;12.690;2022-07-29T04:24:31;23.00;99.90
19342;DHT22;9807;48.258;12.690;2022-07-29T04:26:57;23.00;99.90
19342;DHT22;9807;48.258;12.690;2022-07-29T04:29:23;23.00;99.90
19342;DHT22;9807;48.258;12.690;2022-07-29T04:31:48;23.00;99.90
19342;DHT22;9807;48.258;12.690;2022-07-29T04:34:14;23.10;99.90
19342;DHT22;9807;48.258;12.690;2022-07-29T04:36:40;23.00;99.90
19342;DHT22;9807;48.258;12.690;2022-07-29T04:39:06;23.00;99.90
19342;DHT22;9807;48.258;12.690;2022-07-29T04:41:32;23.00;99.90
19342;DHT22;9807;48.258;12.690;2022-07-29T04:43:57;23.10;99.90
19342;DHT22;9807;48.258;12.690;2022-07-29T04:46:26;23.10;99.90
19342;DHT22;9807;48.258;12.690;2022-07-29T04:48:51;23.20;99.90
19342;DHT22;9807;48.258;12.690;2022-07-29T04:51:21;23.10;99.90
19342;DHT22;9807;48.258;12.690;2022-07-29T04:53:46;23.20;99.90
19342;DHT22;9807;48.258;12.690;2022-07-29T04:56:24;23.20;99.90
19342;DHT22;9807;48.258;12.690;2022-07-29T04:58:50;23.20;99.90
19342;DHT22;9807;48.258;12.690;2022-07-29T05:01:19;23.20;99.90
19342;DHT22;9807;48.258;12.690;2022-07-29T05:03:45;23.20;99.90
19342;DHT22;9807;48.258;12.690;2022-07-29T05:06:20;23.20;99.90
19342;DHT22;9807;48.258;12.690;2022-07-29T05:08:46;23.30;99.90
19342;DHT22;9807;48.258;12.690;2022-07-29T05:11:15;23.10;99.90
19342;DHT22;9807;48.258;12.690;2022-07-29T05:13:41;23.00;99.90
19342;DHT22;9807;48.258;12.690;2022-07-29T05:16:14;22.70;99.90
19342;DHT22;9807;48.258;12.690;2022-07-29T05:18:42;22.70;99.90
19342;DHT22;9807;48.258;12.690;2022-07-29T05:21:17;22.70;99.90
19342;DHT22;9807;48.258;12.690;2022-07-29T05:23:43;22.80;99.90
19342;DHT22;9807;48.258;12.690;2022-07-29T05:26:19;22.90;99.90
19342;DHT22;9807;48.258;12.690;2022-07-29T05:28:48;22.80;99.90
19342;DHT22;9807;48.258;12.690;2022-07-29T05:31:20;22.70;99.90
19342;DHT22;9807;48.258;12.690;2022-07-29T05:33:48;22.80;99.90
19342;DHT22;9807;48.258;12.690;2022-07-29T05:36:22;22.90;99.90
19342;DHT22;9807;48.258;12.690;2022-07-29T05:38:48;23.00;99.90
19342;DHT22;9807;48.258;12.690;2022-07-29T05:41:19;22.90;99.90
19342;DHT22;9807;48.258;12.690;2022-07-29T05:43:48;22.80;99.90
19342;DHT22;9807;48.258;12.690;2022-07-29T05:46:17;22.80;99.90
19342;DHT22;9807;48.258;12.690;2022-07-29T05:48:43;22.90;99.90
19342;DHT22;9807;48.258;12.690;2022-07-29T05:51:25;23.10;99.90
19342;DHT22;9807;48.258;12.690;2022-07-29T05:53:50;23.30;99.90
19342;DHT22;9807;48.258;12.690;2022-07-29T05:56:26;23.40;99.90
19342;DHT22;9807;48.258;12.690;2022-07-29T05:58:52;23.50;99.90
19342;DHT22;9807;48.258;12.690;2022-07-29T06:01:17;23.60;99.90
19342;DHT22;9807;48.258;12.690;2022-07-29T06:03:43;23.70;99.90
19342;DHT22;9807;48.258;12.690;2022-07-29T06:06:21;23.70;99.90
19342;DHT22;9807;48.258;12.690;2022-07-29T06:08:47;23.70;99.90
19342;DHT22;9807;48.258;12.690;2022-07-29T06:11:23;23.80;99.90
19342;DHT22;9807;48.258;12.690;2022-07-29T06:13:49;23.90;99.90
19342;DHT22;9807;48.258;12.690;2022-07-29T06:16:21;23.90;99.90
19342;DHT22;9807;48.258;12.690;2022-07-29T06:18:46;23.90;99.90
19342;DHT22;9807;48.258;12.690;2022-07-29T06:21:18;24.00;99.90
19342;DHT22;9807;48.258;12.690;2022-07-29T06:23:44;24.10;99.90
19342;DHT22;9807;48.258;12.690;2022-07-29T06:26:19;24.20;99.90
19342;DHT22;9807;48.258;12.690;2022-07-29T06:28:45;24.40;99.90
19342;DHT22;9807;48.258;12.690;2022-07-29T06:31:17;24.40;99.90
19342;DHT22;9807;48.258;12.690;2022-07-29T06:33:43;24.30;99.90
19342;DHT22;9807;48.258;12.690;2022-07-29T06:36:27;24.20;99.90
19342;DHT22;9807;48.258;12.690;2022-07-29T06:38:53;24.10;99.90
19342;DHT22;9807;48.258;12.690;2022-07-29T06:41:19;24.00;99.90
19342;DHT22;9807;48.258;12.690;2022-07-29T06:43:45;23.90;99.90
19342;DHT22;9807;48.258;12.690;2022-07-29T06:46:20;23.70;99.90
19342;DHT22;9807;48.258;12.690;2022-07-29T06:48:47;23.70;99.90
19342;DHT22;9807;48.258;12.690;2022-07-29T06:51:20;23.80;99.90
19342;DHT22;9807;48.258;12.690;2022-07-29T06:53:46;23.80;99.90
19342;DHT22;9807;48.258;12.690;2022-07-29T06:56:21;23.90;99.90
19342;DHT22;9807;48.258;12.690;2022-07-29T06:58:50;23.90;99.90
19342;DHT22;9807;48.258;12.690;2022-07-29T07:01:15;23.80;99.90
19342;DHT22;9807;48.258;12.690;2022-07-29T07:03:41;23.90;99.90
19342;DHT22;9807;48.258;12.690;2022-07-29T07:06:22;24.10;99.90
19342;DHT22;9807;48.258;12.690;2022-07-29T07:08:48;24.40;99.90
19342;DHT22;9807;48.258;12.690;2022-07-29T07:11:27;24.50;99.90
19342;DHT22;9807;48.258;12.690;2022-07-29T07:13:54;24.30;99.90
19342;DHT22;9807;48.258;12.690;2022-07-29T07:16:20;24.10;99.90
19342;DHT22;9807;48.258;12.690;2022-07-29T07:18:45;24.10;99.90
19342;DHT22;9807;48.258;12.690;2022-07-29T07:21:15;24.20;99.90
19342;DHT22;9807;48.258;12.690;2022-07-29T07:23:40;24.20;99.90
19342;DHT22;9807;48.258;12.690;2022-07-29T07:26:06;24.50;99.90
19342;DHT22;9807;48.258;12.690;2022-07-29T07:28:32;24.70;99.90
19342;DHT22;9807;48.258;12.690;2022-07-29T07:30:57;24.90;99.90
19342;DHT22;9807;48.258;12.690;2022-07-29T07:33:23;25.10;99.90
19342;DHT22;9807;48.258;12.690;2022-07-29T07:35:48;25.20;99.90
19342;DHT22;9807;48.258;12.690;2022-07-29T07:38:14;25.20;99.90
19342;DHT22;9807;48.258;12.690;2022-07-29T07:40:40;25.20;99.90
19342;DHT22;9807;48.258;12.690;2022-07-29T07:43:06;25.30;99.90
19342;DHT22;9807;48.258;12.690;2022-07-29T07:45:32;25.70;99.90
19342;DHT22;9807;48.258;12.690;2022-07-29T07:47:58;25.80;99.90
19342;DHT22;9807;48.258;12.690;2022-07-29T07:50:24;25.70;99.90
19342;DHT22;9807;48.258;12.690;2022-07-29T07:52:54;25.70;99.90
19342;DHT22;9807;48.258;12.690;2022-07-29T07:55:23;25.70;99.90
19342;DHT22;9807;48.258;12.690;2022-07-29T07:57:49;25.70;99.90
19342;DHT22;9807;48.258;12.690;2022-07-29T08:00:16;25.90;99.90
19342;DHT22;9807;48.258;12.690;2022-07-29T08:02:44;26.20;99.90
19342;DHT22;9807;48.258;12.690;2022-07-29T08:05:11;26.30;99.90
19342;DHT22;9807;48.258;12.690;2022-07-29T08:07:41;26.30;99.90
19342;DHT22;9807;48.258;12.690;2022-07-29T08:10:07;26.10;99.90
19342;DHT22;9807;48.258;12.690;2022-07-29T08:12:35;26.00;99.90
19342;DHT22;9807;48.258;12.690;2022-07-29T08:15:04;26.10;99.90
19342;DHT22;9807;48.258;12.690;2022-07-29T08:17:33;26.10;99.90
19342;DHT22;9807;48.258;12.690;2022-07-29T08:19:58;26.10;99.90
19342;DHT22;9807;48.258;12.690;2022-07-29T08:22:24;26.20;99.90
19342;DHT22;9807;48.258;12.690;2022-07-29T08:24:50;26.30;99.90
19342;DHT22;9807;48.258;12.690;2022-07-29T08:27:20;26.20;99.90
19342;DHT22;9807;48.258;12.690;2022-07-29T08:29:46;26.10;99.90
19342;DHT22;9807;48.258;12.690;2022-07-29T08:32:15;26.10;99.90
19342;DHT22;9807;48.258;12.690;2022-07-29T08:34:41;26.20;99.90
19342;DHT22;9807;48.258;12.690;2022-07-29T08:37:06;26.50;99.90
19342;DHT22;9807;48.258;12.690;2022-07-29T08:39:32;26.80;99.90
19342;DHT22;9807;48.258;12.690;2022-07-29T08:41:58;27.10;99.90
19342;DHT22;9807;48.258;12.690;2022-07-29T08:44:23;27.50;99.90
19342;DHT22;9807;48.258;12.690;2022-07-29T08:46:50;27.60;99.90
19342;DHT22;9807;48.258;12.690;2022-07-29T08:49:17;27.90;99.90
19342;DHT22;9807;48.258;12.690;2022-07-29T08:51:46;28.20;99.90
19342;DHT22;9807;48.258;12.690;2022-07-29T08:54:17;28.80;99.90
19342;DHT22;9807;48.258;12.690;2022-07-29T08:56:44;29.40;99.90
19342;DHT22;9807;48.258;12.690;2022-07-29T08:59:11;29.70;99.90
19342;DHT22;9807;48.258;12.690;2022-07-29T09:01:38;30.10;99.90
19342;DHT22;9807;48.258;12.690;2022-07-29T09:04:10;30.50;99.90
19342;DHT22;9807;48.258;12.690;2022-07-29T09:06:39;30.80;99.90
19342;DHT22;9807;48.258;12.690;2022-07-29T09:09:07;31.00;99.90
19342;DHT22;9807;48.258;12.690;2022-07-29T09:11:33;30.80;99.90
19342;DHT22;9807;48.258;12.690;2022-07-29T09:13:59;30.40;99.90
19342;DHT22;9807;48.258;12.690;2022-07-29T09:16:25;29.60;99.90
19342;DHT22;9807;48.258;12.690;2022-07-29T09:18:51;29.10;99.90
19342;DHT22;9807;48.258;12.690;2022-07-29T09:21:20;29.10;99.90
19342;DHT22;9807;48.258;12.690;2022-07-29T09:24:11;29.70;99.90
19342;DHT22;9807;48.258;12.690;2022-07-29T09:26:42;30.00;99.90
19342;DHT22;9807;48.258;12.690;2022-07-29T09:29:18;29.90;99.90
19342;DHT22;9807;48.258;12.690;2022-07-29T09:31:47;29.50;99.90
19342;DHT22;9807;48.258;12.690;2022-07-29T09:34:15;29.20;99.90
19342;DHT22;9807;48.258;12.690;2022-07-29T09:36:42;28.90;99.90
19342;DHT22;9807;48.258;12.690;2022-07-29T09:39:08;29.00;99.90
19342;DHT22;9807;48.258;12.690;2022-07-29T09:41:51;29.40;99.90
19342;DHT22;9807;48.258;12.690;2022-07-29T09:44:21;29.50;99.90
19342;DHT22;9807;48.258;12.690;2022-07-29T09:49:23;29.00;99.90
19342;DHT22;9807;48.258;12.690;2022-07-29T09:52:06;28.60;99.90
19342;DHT22;9807;48.258;12.690;2022-07-29T09:54:32;28.60;99.90
19342;DHT22;9807;48.258;12.690;2022-07-29T09:57:06;28.90;99.90
19342;DHT22;9807;48.258;12.690;2022-07-29T09:59:32;28.60;99.90
19342;DHT22;9807;48.258;12.690;2022-07-29T10:01:59;28.60;99.90
19342;DHT22;9807;48.258;12.690;2022-07-29T10:04:42;28.80;99.90
19342;DHT22;9807;48.258;12.690;2022-07-29T10:07:08;29.30;99.90
19342;DHT22;9807;48.258;12.690;2022-07-29T10:09:35;29.60;99.90
19342;DHT22;9807;48.258;12.690;2022-07-29T10:12:12;29.20;99.90
19342;DHT22;9807;48.258;12.690;2022-07-29T10:14:41;29.00;99.90
19342;DHT22;9807;48.258;12.690;2022-07-29T10:17:08;29.10;99.90
19342;DHT22;9807;48.258;12.690;2022-07-29T10:19:35;29.50;99.90
19342;DHT22;9807;48.258;12.690;2022-07-29T10:22:04;29.70;99.90
19342;DHT22;9807;48.258;12.690;2022-07-29T10:24:31;30.10;99.90
19342;DHT22;9807;48.258;12.690;2022-07-29T10:26:59;30.50;99.90
19342;DHT22;9807;48.258;12.690;2022-07-29T10:29:25;30.40;99.90
19342;DHT22;9807;48.258;12.690;2022-07-29T10:32:16;30.40;99.90
19342;DHT22;9807;48.258;12.690;2022-07-29T10:40:54;29.70;99.90
19342;DHT22;9807;48.258;12.690;2022-07-29T10:43:45;30.00;99.90
19342;DHT22;9807;48.258;12.690;2022-07-29T10:46:40;30.50;99.90
19342;DHT22;9807;48.258;12.690;2022-07-29T10:49:17;30.70;99.90
19342;DHT22;9807;48.258;12.690;2022-07-29T10:52:07;30.60;99.90
19342;DHT22;9807;48.258;12.690;2022-07-29T10:57:27;30.70;99.90
19342;DHT22;9807;48.258;12.690;2022-07-29T11:07:31;30.30;99.90
19342;DHT22;9807;48.258;12.690;2022-07-29T11:15:10;30.30;99.90
19342;DHT22;9807;48.258;12.690;2022-07-29T11:23:32;30.40;99.90
19342;DHT22;9807;48.258;12.690;2022-07-29T11:26:25;30.40;99.90
19342;DHT22;9807;48.258;12.690;2022-07-29T11:31:49;30.30;99.90
19342;DHT22;9807;48.258;12.690;2022-07-29T11:34:29;30.50;99.90
19342;DHT22;9807;48.258;12.690;2022-07-29T11:39:38;31.00;99.90
19342;DHT22;9807;48.258;12.690;2022-07-29T11:45:07;30.80;99.90
19342;DHT22;9807;48.258;12.690;2022-07-29T11:47:40;30.90;99.90
19342;DHT22;9807;48.258;12.690;2022-07-29T11:50:09;31.00;99.90
19342;DHT22;9807;48.258;12.690;2022-07-29T11:52:44;31.20;99.90
19342;DHT22;9807;48.258;12.690;2022-07-29T11:55:20;31.40;99.90
19342;DHT22;9807;48.258;12.690;2022-07-29T12:00:27;31.00;99.90
19342;DHT22;9807;48.258;12.690;2022-07-29T12:02:53;30.70;99.90
19342;DHT22;9807;48.258;12.690;2022-07-29T12:05:19;30.50;99.90
19342;DHT22;9807;48.258;12.690;2022-07-29T12:07:47;30.40;99.90
19342;DHT22;9807;48.258;12.690;2022-07-29T12:10:13;30.50;99.90
19342;DHT22;9807;48.258;12.690;2022-07-29T12:12:39;30.50;99.90
19342;DHT22;9807;48.258;12.690;2022-07-29T12:15:15;30.20;99.90
19342;DHT22;9807;48.258;12.690;2022-07-29T12:17:46;29.90;99.90
19342;DHT22;9807;48.258;12.690;2022-07-29T12:20:13;29.60;99.90
19342;DHT22;9807;48.258;12.690;2022-07-29T12:22:42;29.40;99.90
19342;DHT22;9807;48.258;12.690;2022-07-29T12:25:12;29.40;99.90
19342;DHT22;9807;48.258;12.690;2022-07-29T12:27:40;29.30;99.90
19342;DHT22;9807;48.258;12.690;2022-07-29T12:30:08;29.30;99.90
19342;DHT22;9807;48.258;12.690;2022-07-29T12:32:38;29.40;99.90
19342;DHT22;9807;48.258;12.690;2022-07-29T12:37:39;29.60;99.90
19342;DHT22;9807;48.258;12.690;2022-07-29T12:40:07;29.70;99.90
19342;DHT22;9807;48.258;12.690;2022-07-29T12:42:34;29.70;99.90
19342;DHT22;9807;48.258;12.690;2022-07-29T12:45:00;30.00;99.90
19342;DHT22;9807;48.258;12.690;2022-07-29T12:47:27;30.40;99.90
19342;DHT22;9807;48.258;12.690;2022-07-29T12:50:11;30.80;99.90
19342;DHT22;9807;48.258;12.690;2022-07-29T12:52:37;30.80;99.90
19342;DHT22;9807;48.258;12.690;2022-07-29T12:55:03;30.90;99.90
19342;DHT22;9807;48.258;12.690;2022-07-29T12:57:45;31.10;99.90
19342;DHT22;9807;48.258;12.690;2022-07-29T13:00:12;31.20;99.90
19342;DHT22;9807;48.258;12.690;2022-07-29T13:02:40;31.30;99.90
19342;DHT22;9807;48.258;12.690;2022-07-29T13:05:07;31.00;99.90
19342;DHT22;9807;48.258;12.690;2022-07-29T13:07:37;30.50;99.90
19342;DHT22;9807;48.258;12.690;2022-07-29T13:10:19;30.10;99.90
19342;DHT22;9807;48.258;12.690;2022-07-29T13:13:14;30.00;99.90
19342;DHT22;9807;48.258;12.690;2022-07-29T13:15:44;29.80;99.90
19342;DHT22;9807;48.258;12.690;2022-07-29T13:18:32;29.80;99.90
19342;DHT22;9807;48.258;12.690;2022-07-29T13:21:11;29.70;99.90
19342;DHT22;9807;48.258;12.690;2022-07-29T13:23:37;29.60;99.90
19342;DHT22;9807;48.258;12.690;2022-07-29T13:26:07;29.90;99.90
19342;DHT22;9807;48.258;12.690;2022-07-29T13:28:33;30.20;99.90
19342;DHT22;9807;48.258;12.690;2022-07-29T13:31:00;30.40;99.90
19342;DHT22;9807;48.258;12.690;2022-07-29T13:33:25;30.50;99.90
19342;DHT22;9807;48.258;12.690;2022-07-29T13:35:51;30.40;99.90
19342;DHT22;9807;48.258;12.690;2022-07-29T13:38:17;30.40;99.90
19342;DHT22;9807;48.258;12.690;2022-07-29T13:40:44;30.40;99.90
19342;DHT22;9807;48.258;12.690;2022-07-29T13:43:10;30.50;99.90
19342;DHT22;9807;48.258;12.690;2022-07-29T13:45:36;30.50;99.90
19342;DHT22;9807;48.258;12.690;2022-07-29T13:48:02;30.80;99.90
19342;DHT22;9807;48.258;12.690;2022-07-29T13:50:28;31.00;99.90
19342;DHT22;9807;48.258;12.690;2022-07-29T13:52:54;31.10;99.90
19342;DHT22;9807;48.258;12.690;2022-07-29T13:55:20;31.10;99.90
19342;DHT22;9807;48.258;12.690;2022-07-29T13:57:45;30.80;99.90
19342;DHT22;9807;48.258;12.690;2022-07-29T14:00:12;30.60;99.90
19342;DHT22;9807;48.258;12.690;2022-07-29T14:02:47;30.50;99.90
19342;DHT22;9807;48.258;12.690;2022-07-29T14:05:12;30.50;99.90
19342;DHT22;9807;48.258;12.690;2022-07-29T14:07:38;30.50;99.90
19342;DHT22;9807;48.258;12.690;2022-07-29T14:10:05;30.70;99.90
19342;DHT22;9807;48.258;12.690;2022-07-29T14:12:53;30.90;99.90
19342;DHT22;9807;48.258;12.690;2022-07-29T14:15:19;30.80;99.90
19342;DHT22;9807;48.258;12.690;2022-07-29T14:17:45;30.50;99.90
19342;DHT22;9807;48.258;12.690;2022-07-29T14:20:14;30.40;99.90
19342;DHT22;9807;48.258;12.690;2022-07-29T14:22:41;30.40;99.90
19342;DHT22;9807;48.258;12.690;2022-07-29T14:25:08;30.50;99.90
19342;DHT22;9807;48.258;12.690;2022-07-29T14:27:36;30.60;99.90
19342;DHT22;9807;48.258;12.690;2022-07-29T14:30:06;30.70;99.90
19342;DHT22;9807;48.258;12.690;2022-07-29T14:32:32;30.80;99.90
19342;DHT22;9807;48.258;12.690;2022-07-29T14:34:58;31.00;99.90
19342;DHT22;9807;48.258;12.690;2022-07-29T14:37:23;31.00;99.90
19342;DHT22;9807;48.258;12.690;2022-07-29T14:39:52;31.00;99.90
19342;DHT22;9807;48.258;12.690;2022-07-29T14:42:41;31.10;99.90
19342;DHT22;9807;48.258;12.690;2022-07-29T14:45:09;31.10;99.90
19342;DHT22;9807;48.258;12.690;2022-07-29T14:47:48;31.10;99.90
19342;DHT22;9807;48.258;12.690;2022-07-29T14:55:08;30.60;99.90
19342;DHT22;9807;48.258;12.690;2022-07-29T14:57:34;30.70;99.90
19342;DHT22;9807;48.258;12.690;2022-07-29T15:00:00;30.80;99.90
19342;DHT22;9807;48.258;12.690;2022-07-29T15:02:26;30.90;99.90
19342;DHT22;9807;48.258;12.690;2022-07-29T15:04:51;31.10;99.90
19342;DHT22;9807;48.258;12.690;2022-07-29T15:07:17;31.30;99.90
19342;DHT22;9807;48.258;12.690;2022-07-29T15:09:43;31.50;99.90
19342;DHT22;9807;48.258;12.690;2022-07-29T15:12:11;31.60;99.90
19342;DHT22;9807;48.258;12.690;2022-07-29T15:14:37;31.70;99.90
19342;DHT22;9807;48.258;12.690;2022-07-29T15:17:03;31.70;99.90
19342;DHT22;9807;48.258;12.690;2022-07-29T15:19:28;31.70;99.90
19342;DHT22;9807;48.258;12.690;2022-07-29T15:21:54;31.90;99.90
19342;DHT22;9807;48.258;12.690;2022-07-29T15:24:20;32.00;99.90
19342;DHT22;9807;48.258;12.690;2022-07-29T15:26:46;32.00;99.90
19342;DHT22;9807;48.258;12.690;2022-07-29T15:29:13;32.00;99.90
19342;DHT22;9807;48.258;12.690;2022-07-29T15:31:39;31.70;99.90
19342;DHT22;9807;48.258;12.690;2022-07-29T15:34:04;31.40;99.90
19342;DHT22;9807;48.258;12.690;2022-07-29T15:36:30;31.10;99.90
19342;DHT22;9807;48.258;12.690;2022-07-29T15:38:56;30.80;99.90
19342;DHT22;9807;48.258;12.690;2022-07-29T15:41:22;30.60;99.90
19342;DHT22;9807;48.258;12.690;2022-07-29T15:43:48;30.50;99.90
19342;DHT22;9807;48.258;12.690;2022-07-29T15:46:16;30.30;99.90
19342;DHT22;9807;48.258;12.690;2022-07-29T15:49:01;30.30;99.90
19342;DHT22;9807;48.258;12.690;2022-07-29T15:51:27;30.20;99.90
19342;DHT22;9807;48.258;12.690;2022-07-29T15:53:53;29.90;99.90
19342;DHT22;9807;48.258;12.690;2022-07-29T15:56:19;29.60;99.90
19342;DHT22;9807;48.258;12.690;2022-07-29T15:58:45;29.30;99.90
19342;DHT22;9807;48.258;12.690;2022-07-29T16:01:12;29.20;99.90
19342;DHT22;9807;48.258;12.690;2022-07-29T16:03:38;29.10;99.90
19342;DHT22;9807;48.258;12.690;2022-07-29T16:06:06;28.90;99.90
19342;DHT22;9807;48.258;12.690;2022-07-29T16:08:32;28.60;99.90
19342;DHT22;9807;48.258;12.690;2022-07-29T16:10:58;28.40;99.90
19342;DHT22;9807;48.258;12.690;2022-07-29T16:13:24;28.30;99.90
19342;DHT22;9807;48.258;12.690;2022-07-29T16:15:49;28.20;99.90
19342;DHT22;9807;48.258;12.690;2022-07-29T16:18:15;28.10;99.90
19342;DHT22;9807;48.258;12.690;2022-07-29T16:20:41;28.00;99.90
19342;DHT22;9807;48.258;12.690;2022-07-29T16:23:07;28.00;99.90
19342;DHT22;9807;48.258;12.690;2022-07-29T16:25:35;27.90;99.90
19342;DHT22;9807;48.258;12.690;2022-07-29T16:28:04;27.80;99.90
19342;DHT22;9807;48.258;12.690;2022-07-29T16:30:30;27.80;99.90
19342;DHT22;9807;48.258;12.690;2022-07-29T16:32:56;27.70;99.90
19342;DHT22;9807;48.258;12.690;2022-07-29T16:35:22;27.70;99.90
19342;DHT22;9807;48.258;12.690;2022-07-29T16:37:48;27.70;99.90
19342;DHT22;9807;48.258;12.690;2022-07-29T16:40:14;27.60;99.90
19342;DHT22;9807;48.258;12.690;2022-07-29T16:42:40;27.60;99.90
19342;DHT22;9807;48.258;12.690;2022-07-29T16:45:06;27.70;99.90
19342;DHT22;9807;48.258;12.690;2022-07-29T16:47:32;27.70;99.90